sensor_id;sensor_type;location;lat;lon;timestamp;temperature;humidity
12504;DHT22;6316;48.118;-1.690;2023-09-19T00:00:37;16.50;99.90
12504;DHT22;6316;48.118;-1.690;2023-09-19T00:03:03;16.50;99.90
12504;DHT22;6316;48.118;-1.690;2023-09-19T00:05:33;16.50;99.90
12504;DHT22;6316;48.118;-1.690;2023-09-19T00:08:00;16.40;99.90
12504;DHT22;6316;48.118;-1.690;2023-09-19T00:10:27;16.50;99.90
12504;DHT22;6316;48.118;-1.690;2023-09-19T00:12:57;16.50;99.90
12504;DHT22;6316;48.118;-1.690;2023-09-19T00:15:24;16.40;99.90
12504;DHT22;6316;48.118;-1.690;2023-09-19T00:17:52;16.40;99.90
12504;DHT22;6316;48.118;-1.690;2023-09-19T00:20:20;16.40;99.90
12504;DHT22;6316;48.118;-1.690;2023-09-19T00:22:49;16.40;99.90
12504;DHT22;6316;48.118;-1.690;2023-09-19T00:25:19;16.40;99.90
12504;DHT22;6316;48.118;-1.690;2023-09-19T00:27:45;16.40;99.90
12504;DHT22;6316;48.118;-1.690;2023-09-19T00:30:13;16.40;99.90
12504;DHT22;6316;48.118;-1.690;2023-09-19T00:32:45;16.40;99.90
12504;DHT22;6316;48.118;-1.690;2023-09-19T00:35:16;16.40;99.90
12504;DHT22;6316;48.118;-1.690;2023-09-19T00:37:41;16.40;99.90
12504;DHT22;6316;48.118;-1.690;2023-09-19T00:40:08;16.30;99.90
12504;DHT22;6316;48.118;-1.690;2023-09-19T00:42:44;16.30;99.90
12504;DHT22;6316;48.118;-1.690;2023-09-19T00:45:12;16.30;99.90
12504;DHT22;6316;48.118;-1.690;2023-09-19T00:47:47;16.30;99.90
12504;DHT22;6316;48.118;-1.690;2023-09-19T00:50:18;16.30;99.90
12504;DHT22;6316;48.118;-1.690;2023-09-19T00:52:46;16.30;99.90
12504;DHT22;6316;48.118;-1.690;2023-09-19T00:55:12;16.30;99.90
12504;DHT22;6316;48.118;-1.690;2023-09-19T00:57:39;16.20;99.90
12504;DHT22;6316;48.118;-1.690;2023-09-19T01:00:06;16.20;99.90
12504;DHT22;6316;48.118;-1.690;2023-09-19T01:02:34;16.20;99.90
12504;DHT22;6316;48.118;-1.690;2023-09-19T01:05:00;16.20;99.90
12504;DHT22;6316;48.118;-1.690;2023-09-19T01:07:27;16.20;99.90
12504;DHT22;6316;48.118;-1.690;2023-09-19T01:09:56;16.10;99.90
12504;DHT22;6316;48.118;-1.690;2023-09-19T01:12:37;16.20;99.90
12504;DHT22;6316;48.118;-1.690;2023-09-19T01:15:21;16.10;99.90
12504;DHT22;6316;48.118;-1.690;2023-09-19T01:23:39;16.10;99.90
12504;DHT22;6316;48.118;-1.690;2023-09-19T01:26:45;16.10;99.90
12504;DHT22;6316;48.118;-1.690;2023-09-19T01:29:38;16.00;99.90
12504;DHT22;6316;48.118;-1.690;2023-09-19T01:32:06;16.00;99.90
12504;DHT22;6316;48.118;-1.690;2023-09-19T01:34:47;16.00;99.90
12504;DHT22;6316;48.118;-1.690;2023-09-19T01:37:14;16.00;99.90
12504;DHT22;6316;48.118;-1.690;2023-09-19T01:39:49;16.00;99.90
12504;DHT22;6316;48.118;-1.690;2023-09-19T01:42:21;15.90;99.90
12504;DHT22;6316;48.118;-1.690;2023-09-19T01:45:13;16.00;99.90
12504;DHT22;6316;48.118;-1.690;2023-09-19T01:47:48;15.90;99.90
12504;DHT22;6316;48.118;-1.690;2023-09-19T01:53:30;15.90;99.90
12504;DHT22;6316;48.118;-1.690;2023-09-19T01:55:58;15.80;99.90
12504;DHT22;6316;48.118;-1.690;2023-09-19T01:58:41;15.90;99.90
12504;DHT22;6316;48.118;-1.690;2023-09-19T02:01:10;15.90;99.90
12504;DHT22;6316;48.118;-1.690;2023-09-19T02:03:38;15.80;99.90
12504;DHT22;6316;48.118;-1.690;2023-09-19T02:06:05;15.80;99.90
12504;DHT22;6316;48.118;-1.690;2023-09-19T02:08:30;15.80;99.90
12504;DHT22;6316;48.118;-1.690;2023-09-19T02:10:58;15.80;99.90
12504;DHT22;6316;48.118;-1.690;2023-09-19T02:13:25;15.80;99.90
12504;DHT22;6316;48.118;-1.690;2023-09-19T02:15:52;15.80;99.90
12504;DHT22;6316;48.118;-1.690;2023-09-19T02:18:17;15.80;99.90
12504;DHT22;6316;48.118;-1.690;2023-09-19T02:20:44;15.80;99.90
12504;DHT22;6316;48.118;-1.690;2023-09-19T02:23:10;15.80;99.90
12504;DHT22;6316;48.118;-1.690;2023-09-19T02:25:36;15.80;99.90
12504;DHT22;6316;48.118;-1.690;2023-09-19T02:28:03;15.90;99.90
12504;DHT22;6316;48.118;-1.690;2023-09-19T02:30:29;15.80;99.90
12504;DHT22;6316;48.118;-1.690;2023-09-19T02:32:55;15.80;99.90
12504;DHT22;6316;48.118;-1.690;2023-09-19T02:35:21;15.80;99.90
12504;DHT22;6316;48.118;-1.690;2023-09-19T02:37:48;15.90;99.90
12504;DHT22;6316;48.118;-1.690;2023-09-19T02:40:14;15.80;99.90
12504;DHT22;6316;48.118;-1.690;2023-09-19T02:42:54;15.80;99.90
12504;DHT22;6316;48.118;-1.690;2023-09-19T02:45:20;15.80;99.90
12504;DHT22;6316;48.118;-1.690;2023-09-19T02:47:47;15.80;99.90
12504;DHT22;6316;48.118;-1.690;2023-09-19T02:50:13;15.80;99.90
12504;DHT22;6316;48.118;-1.690;2023-09-19T02:52:45;15.80;99.90
12504;DHT22;6316;48.118;-1.690;2023-09-19T02:55:13;15.80;99.90
12504;DHT22;6316;48.118;-1.690;2023-09-19T02:57:50;15.80;99.90
12504;DHT22;6316;48.118;-1.690;2023-09-19T03:00:18;15.70;99.90
12504;DHT22;6316;48.118;-1.690;2023-09-19T03:02:55;15.70;99.90
12504;DHT22;6316;48.118;-1.690;2023-09-19T03:05:22;15.70;99.90
12504;DHT22;6316;48.118;-1.690;2023-09-19T03:07:52;15.70;99.90
12504;DHT22;6316;48.118;-1.690;2023-09-19T03:10:18;15.70;99.90
12504;DHT22;6316;48.118;-1.690;2023-09-19T03:12:46;15.70;99.90
12504;DHT22;6316;48.118;-1.690;2023-09-19T03:15:12;15.70;99.90
12504;DHT22;6316;48.118;-1.690;2023-09-19T03:17:38;15.60;99.90
12504;DHT22;6316;48.118;-1.690;2023-09-19T03:20:08;15.70;99.90
12504;DHT22;6316;48.118;-1.690;2023-09-19T03:22:35;15.70;99.90
12504;DHT22;6316;48.118;-1.690;2023-09-19T03:25:01;15.70;99.90
12504;DHT22;6316;48.118;-1.690;2023-09-19T03:27:26;15.70;99.90
12504;DHT22;6316;48.118;-1.690;2023-09-19T03:29:52;15.70;99.90
12504;DHT22;6316;48.118;-1.690;2023-09-19T03:32:19;15.70;99.90
12504;DHT22;6316;48.118;-1.690;2023-09-19T03:34:45;15.70;99.90
12504;DHT22;6316;48.118;-1.690;2023-09-19T03:37:10;15.70;99.90
12504;DHT22;6316;48.118;-1.690;2023-09-19T03:39:37;15.70;99.90
12504;DHT22;6316;48.118;-1.690;2023-09-19T03:42:03;15.70;99.90
12504;DHT22;6316;48.118;-1.690;2023-09-19T03:44:30;15.80;99.90
12504;DHT22;6316;48.118;-1.690;2023-09-19T03:46:56;15.70;99.90
12504;DHT22;6316;48.118;-1.690;2023-09-19T03:49:22;15.70;99.90
12504;DHT22;6316;48.118;-1.690;2023-09-19T03:51:48;15.70;99.90
12504;DHT22;6316;48.118;-1.690;2023-09-19T03:54:14;15.70;99.90
12504;DHT22;6316;48.118;-1.690;2023-09-19T03:56:39;15.70;99.90
12504;DHT22;6316;48.118;-1.690;2023-09-19T03:59:05;15.70;99.90
12504;DHT22;6316;48.118;-1.690;2023-09-19T04:01:31;15.60;99.90
12504;DHT22;6316;48.118;-1.690;2023-09-19T04:03:59;15.70;99.90
12504;DHT22;6316;48.118;-1.690;2023-09-19T04:06:36;15.60;99.90
12504;DHT22;6316;48.118;-1.690;2023-09-19T04:09:03;15.70;99.90
12504;DHT22;6316;48.118;-1.690;2023-09-19T04:11:30;15.70;99.90
12504;DHT22;6316;48.118;-1.690;2023-09-19T04:13:56;15.80;99.90
12504;DHT22;6316;48.118;-1.690;2023-09-19T04:16:22;15.80;99.90
12504;DHT22;6316;48.118;-1.690;2023-09-19T04:18:48;15.80;99.90
12504;DHT22;6316;48.118;-1.690;2023-09-19T04:21:13;15.80;99.90
12504;DHT22;6316;48.118;-1.690;2023-09-19T04:23:39;15.80;99.90
12504;DHT22;6316;48.118;-1.690;2023-09-19T04:26:05;15.80;99.90
12504;DHT22;6316;48.118;-1.690;2023-09-19T04:28:31;15.80;99.90
12504;DHT22;6316;48.118;-1.690;2023-09-19T04:30:59;15.70;99.90
12504;DHT22;6316;48.118;-1.690;2023-09-19T04:33:25;15.70;99.90
12504;DHT22;6316;48.118;-1.690;2023-09-19T04:35:52;15.70;99.90
12504;DHT22;6316;48.118;-1.690;2023-09-19T04:38:18;15.70;99.90
12504;DHT22;6316;48.118;-1.690;2023-09-19T04:40:45;15.70;99.90
12504;DHT22;6316;48.118;-1.690;2023-09-19T04:43:11;15.70;99.90
12504;DHT22;6316;48.118;-1.690;2023-09-19T04:45:38;15.70;99.90
12504;DHT22;6316;48.118;-1.690;2023-09-19T04:48:04;15.70;99.90
12504;DHT22;6316;48.118;-1.690;2023-09-19T04:50:32;15.70;99.90
12504;DHT22;6316;48.118;-1.690;2023-09-19T04:53:00;15.70;99.90
12504;DHT22;6316;48.118;-1.690;2023-09-19T04:55:26;15.70;99.90
12504;DHT22;6316;48.118;-1.690;2023-09-19T04:57:53;15.70;99.90
12504;DHT22;6316;48.118;-1.690;2023-09-19T05:00:22;15.70;99.90
12504;DHT22;6316;48.118;-1.690;2023-09-19T05:02:56;15.70;99.90
12504;DHT22;6316;48.118;-1.690;2023-09-19T05:05:22;15.70;99.90
12504;DHT22;6316;48.118;-1.690;2023-09-19T05:07:49;15.60;99.90
12504;DHT22;6316;48.118;-1.690;2023-09-19T05:10:15;15.60;99.90
12504;DHT22;6316;48.118;-1.690;2023-09-19T05:12:44;15.60;99.90
12504;DHT22;6316;48.118;-1.690;2023-09-19T05:15:14;15.60;99.90
12504;DHT22;6316;48.118;-1.690;2023-09-19T05:17:51;15.60;99.90
12504;DHT22;6316;48.118;-1.690;2023-09-19T05:20:17;15.60;99.90
12504;DHT22;6316;48.118;-1.690;2023-09-19T05:23:05;15.60;99.90
12504;DHT22;6316;48.118;-1.690;2023-09-19T05:25:35;15.60;99.90
12504;DHT22;6316;48.118;-1.690;2023-09-19T05:28:09;15.50;99.90
12504;DHT22;6316;48.118;-1.690;2023-09-19T05:30:36;15.50;99.90
12504;DHT22;6316;48.118;-1.690;2023-09-19T05:33:04;15.50;99.90
12504;DHT22;6316;48.118;-1.690;2023-09-19T05:35:30;15.50;99.90
12504;DHT22;6316;48.118;-1.690;2023-09-19T05:37:56;15.50;99.90
12504;DHT22;6316;48.118;-1.690;2023-09-19T05:40:24;15.40;99.90
12504;DHT22;6316;48.118;-1.690;2023-09-19T05:42:50;15.40;99.90
12504;DHT22;6316;48.118;-1.690;2023-09-19T05:45:16;15.50;99.90
12504;DHT22;6316;48.118;-1.690;2023-09-19T05:47:48;15.40;99.90
12504;DHT22;6316;48.118;-1.690;2023-09-19T05:50:15;15.40;99.90
12504;DHT22;6316;48.118;-1.690;2023-09-19T05:52:42;15.40;99.90
12504;DHT22;6316;48.118;-1.690;2023-09-19T05:55:11;15.50;99.90
12504;DHT22;6316;48.118;-1.690;2023-09-19T05:57:37;15.50;99.90
12504;DHT22;6316;48.118;-1.690;2023-09-19T06:00:10;15.50;99.90
12504;DHT22;6316;48.118;-1.690;2023-09-19T06:02:37;15.50;99.90
12504;DHT22;6316;48.118;-1.690;2023-09-19T06:05:05;15.50;99.90
12504;DHT22;6316;48.118;-1.690;2023-09-19T06:07:32;15.50;99.90
12504;DHT22;6316;48.118;-1.690;2023-09-19T06:10:05;15.50;99.90
12504;DHT22;6316;48.118;-1.690;2023-09-19T06:12:33;15.50;99.90
12504;DHT22;6316;48.118;-1.690;2023-09-19T06:15:00;15.50;99.90
12504;DHT22;6316;48.118;-1.690;2023-09-19T06:17:26;15.50;99.90
12504;DHT22;6316;48.118;-1.690;2023-09-19T06:19:53;15.50;99.90
12504;DHT22;6316;48.118;-1.690;2023-09-19T06:22:18;15.60;99.90
12504;DHT22;6316;48.118;-1.690;2023-09-19T06:24:44;15.60;99.90
12504;DHT22;6316;48.118;-1.690;2023-09-19T06:27:10;15.70;99.90
12504;DHT22;6316;48.118;-1.690;2023-09-19T06:29:36;15.70;99.90
12504;DHT22;6316;48.118;-1.690;2023-09-19T06:32:07;15.70;99.90
12504;DHT22;6316;48.118;-1.690;2023-09-19T06:34:34;15.80;99.90
12504;DHT22;6316;48.118;-1.690;2023-09-19T06:36:59;15.80;99.90
12504;DHT22;6316;48.118;-1.690;2023-09-19T06:39:25;15.90;99.90
12504;DHT22;6316;48.118;-1.690;2023-09-19T06:41:52;15.90;99.90
12504;DHT22;6316;48.118;-1.690;2023-09-19T06:44:19;16.00;99.90
12504;DHT22;6316;48.118;-1.690;2023-09-19T06:46:47;16.00;99.90
12504;DHT22;6316;48.118;-1.690;2023-09-19T06:49:19;16.10;99.90
12504;DHT22;6316;48.118;-1.690;2023-09-19T06:51:45;16.10;99.90
12504;DHT22;6316;48.118;-1.690;2023-09-19T06:54:11;16.10;99.90
12504;DHT22;6316;48.118;-1.690;2023-09-19T06:56:36;16.30;99.90
12504;DHT22;6316;48.118;-1.690;2023-09-19T06:59:02;16.50;99.90
12504;DHT22;6316;48.118;-1.690;2023-09-19T07:01:28;16.90;99.90
12504;DHT22;6316;48.118;-1.690;2023-09-19T07:03:54;17.50;99.90
12504;DHT22;6316;48.118;-1.690;2023-09-19T07:06:20;18.10;99.90
12504;DHT22;6316;48.118;-1.690;2023-09-19T07:08:46;18.70;99.90
12504;DHT22;6316;48.118;-1.690;2023-09-19T07:11:11;19.70;99.90
12504;DHT22;6316;48.118;-1.690;2023-09-19T07:13:38;20.90;99.90
12504;DHT22;6316;48.118;-1.690;2023-09-19T07:16:04;21.80;99.90
12504;DHT22;6316;48.118;-1.690;2023-09-19T07:18:30;22.10;99.90
12504;DHT22;6316;48.118;-1.690;2023-09-19T07:20:57;21.80;99.90
12504;DHT22;6316;48.118;-1.690;2023-09-19T07:23:27;21.40;99.90
12504;DHT22;6316;48.118;-1.690;2023-09-19T07:25:56;20.90;99.90
12504;DHT22;6316;48.118;-1.690;2023-09-19T07:28:23;20.40;99.90
12504;DHT22;6316;48.118;-1.690;2023-09-19T07:30:51;20.00;99.90
12504;DHT22;6316;48.118;-1.690;2023-09-19T07:33:16;19.70;99.90
12504;DHT22;6316;48.118;-1.690;2023-09-19T07:35:46;19.70;99.90
12504;DHT22;6316;48.118;-1.690;2023-09-19T07:38:11;20.00;99.90
12504;DHT22;6316;48.118;-1.690;2023-09-19T07:40:37;20.10;99.90
12504;DHT22;6316;48.118;-1.690;2023-09-19T07:43:03;20.00;99.90
12504;DHT22;6316;48.118;-1.690;2023-09-19T07:45:33;20.00;99.90
12504;DHT22;6316;48.118;-1.690;2023-09-19T07:47:59;20.00;99.90
12504;DHT22;6316;48.118;-1.690;2023-09-19T07:50:26;20.00;99.90
12504;DHT22;6316;48.118;-1.690;2023-09-19T07:52:52;20.40;99.90
12504;DHT22;6316;48.118;-1.690;2023-09-19T07:55:19;20.70;99.90
12504;DHT22;6316;48.118;-1.690;2023-09-19T07:57:48;20.90;99.90
12504;DHT22;6316;48.118;-1.690;2023-09-19T08:00:14;21.20;99.90
12504;DHT22;6316;48.118;-1.690;2023-09-19T08:02:40;21.50;99.90
12504;DHT22;6316;48.118;-1.690;2023-09-19T08:05:08;21.70;99.90
12504;DHT22;6316;48.118;-1.690;2023-09-19T08:07:41;21.70;99.90
12504;DHT22;6316;48.118;-1.690;2023-09-19T08:10:07;21.40;99.90
12504;DHT22;6316;48.118;-1.690;2023-09-19T08:12:39;21.10;99.90
12504;DHT22;6316;48.118;-1.690;2023-09-19T08:15:12;20.90;99.90
12504;DHT22;6316;48.118;-1.690;2023-09-19T08:17:38;20.70;99.90
12504;DHT22;6316;48.118;-1.690;2023-09-19T08:20:04;20.60;99.90
12504;DHT22;6316;48.118;-1.690;2023-09-19T08:22:30;20.70;99.90
12504;DHT22;6316;48.118;-1.690;2023-09-19T08:24:56;20.70;99.90
12504;DHT22;6316;48.118;-1.690;2023-09-19T08:27:22;20.70;99.90
12504;DHT22;6316;48.118;-1.690;2023-09-19T08:29:52;20.70;99.90
12504;DHT22;6316;48.118;-1.690;2023-09-19T08:32:18;20.60;99.90
12504;DHT22;6316;48.118;-1.690;2023-09-19T08:34:49;20.50;99.90
12504;DHT22;6316;48.118;-1.690;2023-09-19T08:37:15;20.40;99.90
12504;DHT22;6316;48.118;-1.690;2023-09-19T08:39:42;20.40;99.90
12504;DHT22;6316;48.118;-1.690;2023-09-19T08:42:08;20.30;99.90
12504;DHT22;6316;48.118;-1.690;2023-09-19T08:44:37;20.40;99.90
12504;DHT22;6316;48.118;-1.690;2023-09-19T08:47:10;20.40;99.90
12504;DHT22;6316;48.118;-1.690;2023-09-19T08:52:27;20.60;99.90
12504;DHT22;6316;48.118;-1.690;2023-09-19T08:54:58;20.70;99.90
12504;DHT22;6316;48.118;-1.690;2023-09-19T08:57:29;20.70;99.90
12504;DHT22;6316;48.118;-1.690;2023-09-19T08:59:59;20.70;99.90
12504;DHT22;6316;48.118;-1.690;2023-09-19T09:02:26;20.70;99.90
12504;DHT22;6316;48.118;-1.690;2023-09-19T09:04:53;20.70;99.90
12504;DHT22;6316;48.118;-1.690;2023-09-19T09:07:20;20.60;99.90
12504;DHT22;6316;48.118;-1.690;2023-09-19T09:09:47;20.60;99.90
12504;DHT22;6316;48.118;-1.690;2023-09-19T09:12:14;20.60;99.90
12504;DHT22;6316;48.118;-1.690;2023-09-19T09:14:44;20.60;99.90
12504;DHT22;6316;48.118;-1.690;2023-09-19T09:17:11;20.60;99.90
12504;DHT22;6316;48.118;-1.690;2023-09-19T09:19:37;20.60;99.90
12504;DHT22;6316;48.118;-1.690;2023-09-19T09:22:10;20.60;99.90
12504;DHT22;6316;48.118;-1.690;2023-09-19T09:24:37;20.70;99.90
12504;DHT22;6316;48.118;-1.690;2023-09-19T09:27:15;20.70;99.90
12504;DHT22;6316;48.118;-1.690;2023-09-19T09:29:44;20.70;99.90
12504;DHT22;6316;48.118;-1.690;2023-09-19T09:32:29;20.80;99.90
12504;DHT22;6316;48.118;-1.690;2023-09-19T09:34:56;20.80;99.90
12504;DHT22;6316;48.118;-1.690;2023-09-19T09:37:23;20.90;99.90
12504;DHT22;6316;48.118;-1.690;2023-09-19T09:39:52;21.00;99.90
12504;DHT22;6316;48.118;-1.690;2023-09-19T09:42:36;21.10;99.90
12504;DHT22;6316;48.118;-1.690;2023-09-19T09:45:20;21.10;99.90
12504;DHT22;6316;48.118;-1.690;2023-09-19T09:48:01;21.20;99.90
12504;DHT22;6316;48.118;-1.690;2023-09-19T09:50:46;21.10;99.90
12504;DHT22;6316;48.118;-1.690;2023-09-19T09:53:38;21.10;99.90
12504;DHT22;6316;48.118;-1.690;2023-09-19T09:56:08;21.10;99.90
12504;DHT22;6316;48.118;-1.690;2023-09-19T09:58:49;21.10;99.90
12504;DHT22;6316;48.118;-1.690;2023-09-19T10:01:15;21.10;99.90
12504;DHT22;6316;48.118;-1.690;2023-09-19T10:03:42;21.10;99.90
12504;DHT22;6316;48.118;-1.690;2023-09-19T10:06:15;21.20;99.90
12504;DHT22;6316;48.118;-1.690;2023-09-19T10:09:09;21.20;99.90
12504;DHT22;6316;48.118;-1.690;2023-09-19T10:11:38;21.30;99.90
12504;DHT22;6316;48.118;-1.690;2023-09-19T10:14:07;21.40;99.90
12504;DHT22;6316;48.118;-1.690;2023-09-19T10:16:34;21.50;99.90
12504;DHT22;6316;48.118;-1.690;2023-09-19T10:19:02;21.60;99.90
12504;DHT22;6316;48.118;-1.690;2023-09-19T10:21:33;21.60;99.90
12504;DHT22;6316;48.118;-1.690;2023-09-19T10:24:02;21.80;99.90
12504;DHT22;6316;48.118;-1.690;2023-09-19T10:26:34;21.90;99.90
12504;DHT22;6316;48.118;-1.690;2023-09-19T10:29:01;22.10;99.90
12504;DHT22;6316;48.118;-1.690;2023-09-19T10:31:29;22.20;99.90
12504;DHT22;6316;48.118;-1.690;2023-09-19T10:34:02;22.30;99.90
12504;DHT22;6316;48.118;-1.690;2023-09-19T10:36:33;22.40;99.90
12504;DHT22;6316;48.118;-1.690;2023-09-19T10:39:02;22.40;99.90
12504;DHT22;6316;48.118;-1.690;2023-09-19T10:41:32;22.50;99.90
12504;DHT22;6316;48.118;-1.690;2023-09-19T10:44:03;22.60;99.90
12504;DHT22;6316;48.118;-1.690;2023-09-19T10:46:31;22.70;99.90
12504;DHT22;6316;48.118;-1.690;2023-09-19T10:49:01;22.90;99.90
12504;DHT22;6316;48.118;-1.690;2023-09-19T10:51:31;23.10;99.90
12504;DHT22;6316;48.118;-1.690;2023-09-19T10:54:05;23.20;99.90
12504;DHT22;6316;48.118;-1.690;2023-09-19T10:56:36;23.30;99.90
12504;DHT22;6316;48.118;-1.690;2023-09-19T10:59:21;23.40;99.90
12504;DHT22;6316;48.118;-1.690;2023-09-19T11:01:49;23.50;99.90
12504;DHT22;6316;48.118;-1.690;2023-09-19T11:09:54;23.80;99.90
12504;DHT22;6316;48.118;-1.690;2023-09-19T11:27:15;24.00;99.90
12504;DHT22;6316;48.118;-1.690;2023-09-19T11:29:43;24.10;99.90
12504;DHT22;6316;48.118;-1.690;2023-09-19T11:32:09;24.00;99.90
12504;DHT22;6316;48.118;-1.690;2023-09-19T11:34:43;24.00;99.90
12504;DHT22;6316;48.118;-1.690;2023-09-19T11:39:38;23.90;99.90
12504;DHT22;6316;48.118;-1.690;2023-09-19T11:48:16;23.80;99.90
12504;DHT22;6316;48.118;-1.690;2023-09-19T11:50:45;23.70;99.90
12504;DHT22;6316;48.118;-1.690;2023-09-19T11:53:12;23.80;99.90
12504;DHT22;6316;48.118;-1.690;2023-09-19T11:55:41;23.90;99.90
12504;DHT22;6316;48.118;-1.690;2023-09-19T11:58:08;24.10;99.90
12504;DHT22;6316;48.118;-1.690;2023-09-19T12:00:36;24.20;99.90
12504;DHT22;6316;48.118;-1.690;2023-09-19T12:03:09;24.20;99.90
12504;DHT22;6316;48.118;-1.690;2023-09-19T12:05:35;24.30;99.90
12504;DHT22;6316;48.118;-1.690;2023-09-19T12:08:03;24.30;99.90
12504;DHT22;6316;48.118;-1.690;2023-09-19T12:10:29;24.30;99.90
12504;DHT22;6316;48.118;-1.690;2023-09-19T12:12:55;24.30;99.90
12504;DHT22;6316;48.118;-1.690;2023-09-19T12:15:25;24.20;99.90
12504;DHT22;6316;48.118;-1.690;2023-09-19T12:18:00;24.20;99.90
12504;DHT22;6316;48.118;-1.690;2023-09-19T12:20:45;24.20;99.90
12504;DHT22;6316;48.118;-1.690;2023-09-19T12:23:16;24.20;99.90
12504;DHT22;6316;48.118;-1.690;2023-09-19T12:25:43;24.20;99.90
12504;DHT22;6316;48.118;-1.690;2023-09-19T12:28:13;24.20;99.90
12504;DHT22;6316;48.118;-1.690;2023-09-19T12:30:39;24.20;99.90
12504;DHT22;6316;48.118;-1.690;2023-09-19T12:33:20;24.20;99.90
12504;DHT22;6316;48.118;-1.690;2023-09-19T12:35:47;24.20;99.90
12504;DHT22;6316;48.118;-1.690;2023-09-19T12:38:28;24.20;99.90
12504;DHT22;6316;48.118;-1.690;2023-09-19T12:40:57;24.10;99.90
12504;DHT22;6316;48.118;-1.690;2023-09-19T12:43:26;24.10;99.90
12504;DHT22;6316;48.118;-1.690;2023-09-19T12:45:52;24.10;99.90
12504;DHT22;6316;48.118;-1.690;2023-09-19T12:51:05;24.00;99.90
12504;DHT22;6316;48.118;-1.690;2023-09-19T12:53:44;24.00;99.90
12504;DHT22;6316;48.118;-1.690;2023-09-19T12:56:13;24.10;99.90
12504;DHT22;6316;48.118;-1.690;2023-09-19T13:01:22;24.10;99.90
12504;DHT22;6316;48.118;-1.690;2023-09-19T13:04:21;24.10;99.90
12504;DHT22;6316;48.118;-1.690;2023-09-19T13:06:57;24.10;99.90
12504;DHT22;6316;48.118;-1.690;2023-09-19T13:09:27;24.20;99.90
12504;DHT22;6316;48.118;-1.690;2023-09-19T13:12:05;24.20;99.90
12504;DHT22;6316;48.118;-1.690;2023-09-19T13:15:08;24.20;99.90
12504;DHT22;6316;48.118;-1.690;2023-09-19T13:17:46;24.20;99.90
12504;DHT22;6316;48.118;-1.690;2023-09-19T13:20:26;24.30;99.90
12504;DHT22;6316;48.118;-1.690;2023-09-19T13:22:57;24.30;99.90
12504;DHT22;6316;48.118;-1.690;2023-09-19T13:25:34;24.30;99.90
12504;DHT22;6316;48.118;-1.690;2023-09-19T13:28:00;24.30;99.90
12504;DHT22;6316;48.118;-1.690;2023-09-19T13:30:30;24.30;99.90
12504;DHT22;6316;48.118;-1.690;2023-09-19T13:33:10;24.30;99.90
12504;DHT22;6316;48.118;-1.690;2023-09-19T13:35:36;24.40;99.90
12504;DHT22;6316;48.118;-1.690;2023-09-19T13:38:04;24.40;99.90
12504;DHT22;6316;48.118;-1.690;2023-09-19T13:40:29;24.40;99.90
12504;DHT22;6316;48.118;-1.690;2023-09-19T13:42:56;24.40;99.90
12504;DHT22;6316;48.118;-1.690;2023-09-19T13:45:22;24.40;99.90
12504;DHT22;6316;48.118;-1.690;2023-09-19T13:47:50;24.40;99.90
12504;DHT22;6316;48.118;-1.690;2023-09-19T13:50:16;24.40;99.90
12504;DHT22;6316;48.118;-1.690;2023-09-19T13:52:42;24.40;99.90
12504;DHT22;6316;48.118;-1.690;2023-09-19T13:55:08;24.40;99.90
12504;DHT22;6316;48.118;-1.690;2023-09-19T13:57:34;24.40;99.90
12504;DHT22;6316;48.118;-1.690;2023-09-19T13:59:59;24.40;99.90
12504;DHT22;6316;48.118;-1.690;2023-09-19T14:02:25;24.50;99.90
12504;DHT22;6316;48.118;-1.690;2023-09-19T14:04:52;24.50;99.90
12504;DHT22;6316;48.118;-1.690;2023-09-19T14:07:18;24.50;99.90
12504;DHT22;6316;48.118;-1.690;2023-09-19T14:09:45;24.60;99.90
12504;DHT22;6316;48.118;-1.690;2023-09-19T14:12:11;24.60;99.90
12504;DHT22;6316;48.118;-1.690;2023-09-19T14:14:37;24.50;99.90
12504;DHT22;6316;48.118;-1.690;2023-09-19T14:17:04;24.50;99.90
12504;DHT22;6316;48.118;-1.690;2023-09-19T14:19:30;24.50;99.90
12504;DHT22;6316;48.118;-1.690;2023-09-19T14:21:56;24.40;99.90
12504;DHT22;6316;48.118;-1.690;2023-09-19T14:24:22;24.40;99.90
12504;DHT22;6316;48.118;-1.690;2023-09-19T14:26:48;24.40;99.90
12504;DHT22;6316;48.118;-1.690;2023-09-19T14:29:14;24.30;99.90
12504;DHT22;6316;48.118;-1.690;2023-09-19T14:31:40;24.30;99.90
12504;DHT22;6316;48.118;-1.690;2023-09-19T14:34:06;24.30;99.90
12504;DHT22;6316;48.118;-1.690;2023-09-19T14:36:32;24.20;99.90
12504;DHT22;6316;48.118;-1.690;2023-09-19T14:38:59;24.10;99.90
12504;DHT22;6316;48.118;-1.690;2023-09-19T14:41:24;24.10;99.90
12504;DHT22;6316;48.118;-1.690;2023-09-19T14:43:51;24.10;99.90
12504;DHT22;6316;48.118;-1.690;2023-09-19T14:46:16;24.10;99.90
12504;DHT22;6316;48.118;-1.690;2023-09-19T14:48:44;24.00;99.90
12504;DHT22;6316;48.118;-1.690;2023-09-19T14:51:12;24.00;99.90
12504;DHT22;6316;48.118;-1.690;2023-09-19T14:53:41;24.00;99.90
12504;DHT22;6316;48.118;-1.690;2023-09-19T14:56:08;23.90;99.90
12504;DHT22;6316;48.118;-1.690;2023-09-19T14:58:35;23.90;99.90
12504;DHT22;6316;48.118;-1.690;2023-09-19T15:03:33;23.80;99.90
12504;DHT22;6316;48.118;-1.690;2023-09-19T15:06:04;23.80;99.90
12504;DHT22;6316;48.118;-1.690;2023-09-19T15:08:30;23.70;99.90
12504;DHT22;6316;48.118;-1.690;2023-09-19T15:10:56;23.70;99.90
12504;DHT22;6316;48.118;-1.690;2023-09-19T15:13:24;23.70;99.90
12504;DHT22;6316;48.118;-1.690;2023-09-19T15:16:01;23.60;99.90
12504;DHT22;6316;48.118;-1.690;2023-09-19T15:18:28;23.70;99.90
12504;DHT22;6316;48.118;-1.690;2023-09-19T15:21:02;23.60;99.90
12504;DHT22;6316;48.118;-1.690;2023-09-19T15:23:29;23.70;99.90
12504;DHT22;6316;48.118;-1.690;2023-09-19T15:25:56;23.70;99.90
12504;DHT22;6316;48.118;-1.690;2023-09-19T15:28:22;23.70;99.90
12504;DHT22;6316;48.118;-1.690;2023-09-19T15:30:57;23.70;99.90
12504;DHT22;6316;48.118;-1.690;2023-09-19T15:33:22;23.70;99.90
12504;DHT22;6316;48.118;-1.690;2023-09-19T15:35:48;23.60;99.90
12504;DHT22;6316;48.118;-1.690;2023-09-19T15:38:14;23.60;99.90
12504;DHT22;6316;48.118;-1.690;2023-09-19T15:40:46;23.50;99.90
12504;DHT22;6316;48.118;-1.690;2023-09-19T15:43:12;23.50;99.90
12504;DHT22;6316;48.118;-1.690;2023-09-19T15:45:38;23.40;99.90
12504;DHT22;6316;48.118;-1.690;2023-09-19T15:48:04;23.40;99.90
12504;DHT22;6316;48.118;-1.690;2023-09-19T15:50:30;23.40;99.90
12504;DHT22;6316;48.118;-1.690;2023-09-19T15:52:55;23.40;99.90
12504;DHT22;6316;48.118;-1.690;2023-09-19T15:55:21;23.30;99.90
12504;DHT22;6316;48.118;-1.690;2023-09-19T15:57:47;23.30;99.90
12504;DHT22;6316;48.118;-1.690;2023-09-19T16:00:13;23.20;99.90
12504;DHT22;6316;48.118;-1.690;2023-09-19T16:02:43;23.20;99.90
12504;DHT22;6316;48.118;-1.690;2023-09-19T16:05:10;23.20;99.90
12504;DHT22;6316;48.118;-1.690;2023-09-19T16:07:36;23.10;99.90
12504;DHT22;6316;48.118;-1.690;2023-09-19T16:10:02;23.10;99.90
12504;DHT22;6316;48.118;-1.690;2023-09-19T16:12:28;23.10;99.90
12504;DHT22;6316;48.118;-1.690;2023-09-19T16:14:55;23.10;99.90
12504;DHT22;6316;48.118;-1.690;2023-09-19T16:17:21;23.10;99.90
12504;DHT22;6316;48.118;-1.690;2023-09-19T16:19:47;23.00;99.90
12504;DHT22;6316;48.118;-1.690;2023-09-19T16:22:13;23.00;99.90
12504;DHT22;6316;48.118;-1.690;2023-09-19T16:24:39;23.00;99.90
12504;DHT22;6316;48.118;-1.690;2023-09-19T16:27:04;23.00;99.90
12504;DHT22;6316;48.118;-1.690;2023-09-19T16:29:31;23.00;99.90